Allentown, Arizona
Current Conditions -  °F | °C
As of 1:53 PM on Thursday 18 Dec 2014 (Local Time) from KRQE Reporting Station
Overcast Overcast  
Wind Chill: 38°   Ceiling: 11000
Heat Index: 38°   Visibility: 10mi
Dew Point: 26°   Wind: 0mph
Humidity: 62%   Direction: NA
Pressure: 30.08"   Gusts: NA
Location:  35.2918°N, 109.157°W
Report Text: KRQE 182053Z AUTO 00000KT 10SM OVC110 03/M03 A3008 RMK AO2 SLP162 T00331033 58019 TSNO
Loading
Personal Weather Stations






























Interactive Weather Map New forecast layout! Learn more

10-Day Weather Forecast

Advertisements
Track Severe Weather on mobile